Time;durP1;ratioP1;P1;durP2;ratioP2;P2;SDS_P1;SDS_P2;PMS_P1;PMS_P2;Temp;Humidity;BMP_temperature;BMP_pressure;BME280_temperature;BME280_humidity;BME280_pressure;Samples;Min_cycle;Max_cycle;Signal;HPM_P1;HPM_P2
2023/01/09 05:37:59;;;;;;;;;;;5.90;99.90;;;;;;5894848;23;19910;-80
2023/01/09 06:07:33;;;;;;;;;;;5.90;99.90;;;;;;5473981;23;20064;-81
2023/01/09 06:21:07;;;;;;;;;;;5.80;99.90;;;;;;6045399;23;19921;-79
2023/01/09 12:14:02;;;;;;;;;;;5.30;99.90;;;;;;5078615;23;19932;-80
2023/01/09 12:16:34;;;;;;;;;;;5.30;99.90;;;;;;4959923;28;20051;-81
2023/01/09 12:19:06;;;;;;;;;;;5.30;99.90;;;;;;4960313;28;20316;-80
2023/01/09 12:21:33;;;;;;;;;;;5.40;99.90;;;;;;4952989;28;19934;-79
2023/01/09 12:24:05;;;;;;;;;;;5.30;99.90;;;;;;4957643;28;19961;-80
2023/01/09 12:26:33;;;;;;;;;;;5.40;99.90;;;;;;4957284;28;19957;-80
2023/01/09 12:29:18;;;;;;;;;;;5.40;99.90;;;;;;4951590;28;20301;-80
2023/01/09 12:34:36;;;;;;;;;;;5.40;99.90;;;;;;5028198;23;19926;-80
2023/01/09 12:37:10;;;;;;;;;;;5.40;99.90;;;;;;4960940;28;19926;-79
2023/01/09 12:39:43;;;;;;;;;;;5.40;99.90;;;;;;4935021;28;20000;-78
2023/01/09 12:42:21;;;;;;;;;;;5.40;99.90;;;;;;4935838;28;19926;-79
2023/01/09 12:44:53;;;;;;;;;;;5.40;99.90;;;;;;4950761;28;19927;-79
2023/01/09 12:47:34;;;;;;;;;;;5.40;99.90;;;;;;4949908;28;20279;-80
2023/01/09 12:50:08;;;;;;;;;;;5.40;99.90;;;;;;4954533;28;19934;-80
2023/01/09 12:52:37;;;;;;;;;;;5.40;99.90;;;;;;4949748;28;20479;-78
2023/01/09 12:55:08;;;;;;;;;;;5.40;99.90;;;;;;4954584;28;19926;-78
2023/01/09 12:57:37;;;;;;;;;;;5.40;99.90;;;;;;4932738;28;20017;-78
2023/01/09 13:00:07;;;;;;;;;;;5.50;99.90;;;;;;4952253;28;19977;-80
2023/01/09 13:05:16;;;;;;;;;;;5.50;99.90;;;;;;4929569;29;20454;-80
2023/01/09 13:07:47;;;;;;;;;;;5.50;99.90;;;;;;4914296;29;19934;-79
2023/01/09 13:10:18;;;;;;;;;;;5.50;99.90;;;;;;4914100;29;19934;-80
2023/01/09 13:12:46;;;;;;;;;;;5.50;99.90;;;;;;4910797;29;20037;-79
2023/01/09 13:15:22;;;;;;;;;;;5.50;99.90;;;;;;4911587;29;20430;-79
2023/01/09 13:17:51;;;;;;;;;;;5.50;99.90;;;;;;4921924;29;19927;-80
2023/01/09 13:20:19;;;;;;;;;;;5.50;99.90;;;;;;4915779;29;19927;-81
2023/01/09 13:22:49;;;;;;;;;;;5.50;99.90;;;;;;4930367;29;19932;-81
2023/01/09 13:25:28;;;;;;;;;;;5.50;99.90;;;;;;4928801;29;20305;-81
2023/01/09 13:28:01;;;;;;;;;;;5.50;99.90;;;;;;4915664;29;19938;-80
2023/01/09 13:44:20;;;;;;;;;;;5.60;99.90;;;;;;4877229;29;20351;-81
2023/01/09 13:46:49;;;;;;;;;;;5.60;99.90;;;;;;4887079;29;19936;-81
2023/01/09 13:49:34;;;;;;;;;;;5.60;99.90;;;;;;4889018;29;19934;-81
2023/01/09 13:52:05;;;;;;;;;;;5.60;99.90;;;;;;4902474;29;19934;-81
2023/01/09 13:54:54;;;;;;;;;;;5.50;99.90;;;;;;4884222;29;20425;-80
2023/01/09 13:57:30;;;;;;;;;;;5.50;99.90;;;;;;4889742;29;19931;-80
2023/01/09 14:00:15;;;;;;;;;;;5.50;99.90;;;;;;4891768;29;19935;-80
2023/01/09 14:02:56;;;;;;;;;;;5.50;99.90;;;;;;4879330;29;19935;-79
2023/01/09 14:05:38;;;;;;;;;;;5.50;99.90;;;;;;4889918;29;19931;-79
2023/01/09 14:08:07;;;;;;;;;;;5.60;99.90;;;;;;4854359;29;20030;-80
2023/01/09 14:10:35;;;;;;;;;;;5.50;99.90;;;;;;4891718;29;20390;-79
2023/01/09 14:13:06;;;;;;;;;;;5.60;99.90;;;;;;4897853;29;19970;-80
2023/01/09 14:15:36;;;;;;;;;;;5.60;99.90;;;;;;4883700;29;19927;-80
2023/01/09 14:18:05;;;;;;;;;;;5.60;99.90;;;;;;4869627;29;19936;-80
2023/01/09 14:20:37;;;;;;;;;;;5.60;99.90;;;;;;4888324;29;19934;-81
2023/01/09 14:23:06;;;;;;;;;;;5.60;99.90;;;;;;4897796;29;19928;-80
2023/01/09 14:25:33;;;;;;;;;;;5.60;99.90;;;;;;4899871;29;19935;-80
2023/01/09 14:28:19;;;;;;;;;;;5.60;99.90;;;;;;4882552;29;19928;-80
2023/01/09 14:31:11;;;;;;;;;;;5.60;99.90;;;;;;4897582;29;19991;-81
2023/01/09 14:33:49;;;;;;;;;;;5.60;99.90;;;;;;4894076;29;19928;-81
2023/01/09 14:36:28;;;;;;;;;;;5.60;99.90;;;;;;4888661;29;19936;-80
2023/01/09 14:38:59;;;;;;;;;;;5.60;99.90;;;;;;4896064;29;19928;-80
2023/01/09 14:44:23;;;;;;;;;;;5.60;99.90;;;;;;4886396;29;19931;-79
2023/01/09 14:46:54;;;;;;;;;;;5.60;99.90;;;;;;4893052;29;20358;-80
2023/01/09 14:49:31;;;;;;;;;;;5.60;99.90;;;;;;4893881;29;20010;-80
2023/01/09 14:51:58;;;;;;;;;;;5.60;99.90;;;;;;4882104;29;20378;-79
2023/01/09 14:54:28;;;;;;;;;;;5.60;99.90;;;;;;4894811;29;19938;-79
2023/01/09 14:57:01;;;;;;;;;;;5.60;99.90;;;;;;4892908;29;19935;-80
2023/01/09 14:59:42;;;;;;;;;;;5.60;99.90;;;;;;4900296;29;20454;-80
2023/01/09 15:02:21;;;;;;;;;;;5.60;99.90;;;;;;4896630;29;20046;-79
2023/01/09 15:08:05;;;;;;;;;;;5.60;99.90;;;;;;4905532;29;20374;-81
2023/01/09 15:10:50;;;;;;;;;;;5.60;99.90;;;;;;4895254;29;19971;-81
2023/01/09 15:13:26;;;;;;;;;;;5.60;99.90;;;;;;4884071;29;19928;-81
2023/01/09 15:16:12;;;;;;;;;;;5.60;99.90;;;;;;4885756;29;19931;-80
2023/01/09 15:18:45;;;;;;;;;;;5.60;99.90;;;;;;4884427;29;19941;-80
2023/01/09 15:21:17;;;;;;;;;;;5.60;99.90;;;;;;4894028;29;19928;-80
2023/01/09 15:23:44;;;;;;;;;;;5.60;99.90;;;;;;4899836;29;20295;-80
2023/01/09 15:26:32;;;;;;;;;;;5.60;99.90;;;;;;4895325;29;19932;-80
2023/01/09 15:29:30;;;;;;;;;;;5.60;99.90;;;;;;4900137;29;19996;-81
2023/01/09 15:32:08;;;;;;;;;;;5.60;99.90;;;;;;4897774;29;19935;-80
2023/01/09 15:34:36;;;;;;;;;;;5.60;99.90;;;;;;4900308;29;19983;-80
2023/01/09 15:37:27;;;;;;;;;;;5.60;99.90;;;;;;4887689;29;19933;-80
2023/01/09 15:40:01;;;;;;;;;;;5.60;99.90;;;;;;4883559;29;19927;-77
2023/01/09 15:42:55;;;;;;;;;;;5.60;99.90;;;;;;4891802;29;19934;-79
2023/01/09 15:45:26;;;;;;;;;;;5.60;99.90;;;;;;4885665;29;20511;-80
2023/01/09 15:48:14;;;;;;;;;;;5.60;99.90;;;;;;4887992;29;19935;-79
2023/01/09 15:50:48;;;;;;;;;;;5.60;99.90;;;;;;4892046;29;19935;-80
2023/01/09 15:53:19;;;;;;;;;;;5.60;99.90;;;;;;4948902;23;19926;-80
2023/01/09 15:56:03;;;;;;;;;;;5.60;99.90;;;;;;4952862;28;19952;-80
2023/01/09 15:58:39;;;;;;;;;;;5.60;99.90;;;;;;4965337;28;19933;-81
2023/01/09 16:01:32;;;;;;;;;;;5.50;99.90;;;;;;4964655;28;20393;-80
2023/01/09 16:04:14;;;;;;;;;;;5.60;99.90;;;;;;4957637;28;20008;-81
2023/01/09 16:06:49;;;;;;;;;;;5.50;99.90;;;;;;4958134;28;19934;-80
2023/01/09 16:09:55;;;;;;;;;;;5.50;99.90;;;;;;4956840;28;19926;-80
2023/01/09 16:12:26;;;;;;;;;;;5.50;99.90;;;;;;4943111;28;20467;-81
2023/01/09 16:15:20;;;;;;;;;;;5.60;99.90;;;;;;4956439;28;20452;-80
2023/01/09 16:18:07;;;;;;;;;;;5.50;99.90;;;;;;4934606;28;20392;-81
2023/01/09 16:21:01;;;;;;;;;;;5.50;99.90;;;;;;4942746;28;19926;-80
2023/01/09 16:26:36;;;;;;;;;;;5.50;99.90;;;;;;4959728;28;19923;-80
2023/01/09 16:29:31;;;;;;;;;;;5.60;99.90;;;;;;4960821;28;19926;-80
2023/01/09 16:32:30;;;;;;;;;;;5.50;99.90;;;;;;4942004;28;20017;-80
2023/01/09 16:34:58;;;;;;;;;;;5.50;99.90;;;;;;4964133;28;19926;-80
2023/01/09 16:37:44;;;;;;;;;;;5.50;99.90;;;;;;4938118;28;19973;-81
2023/01/09 16:40:34;;;;;;;;;;;5.50;99.90;;;;;;4935109;28;20458;-80
2023/01/09 16:43:14;;;;;;;;;;;5.50;99.90;;;;;;4953782;28;20017;-80
2023/01/09 16:45:47;;;;;;;;;;;5.50;99.90;;;;;;4954521;28;19927;-80
2023/01/09 16:48:28;;;;;;;;;;;5.50;99.90;;;;;;4935949;29;19930;-80
2023/01/09 16:51:06;;;;;;;;;;;5.50;99.90;;;;;;4957049;28;20293;-80
2023/01/09 16:53:35;;;;;;;;;;;5.50;99.90;;;;;;4937081;28;20456;-81
2023/01/09 16:56:10;;;;;;;;;;;5.50;99.90;;;;;;4954708;28;20489;-81
2023/01/09 16:58:52;;;;;;;;;;;5.40;99.90;;;;;;4955907;28;20282;-81
2023/01/09 17:01:32;;;;;;;;;;;5.50;99.90;;;;;;4935210;28;20009;-81
2023/01/09 17:04:12;;;;;;;;;;;5.50;99.90;;;;;;4952690;28;20432;-79
2023/01/09 17:10:23;;;;;;;;;;;5.50;99.90;;;;;;4965850;28;19929;-81
2023/01/09 17:43:15;;;;;;;;;;;5.40;99.90;;;;;;5098414;23;20456;-80
2023/01/09 18:09:45;;;;;;;;;;;5.40;99.90;;;;;;5880058;23;19933;-81
2023/01/09 18:17:46;;;;;;;;;;;5.30;99.90;;;;;;5396152;23;20510;-79
2023/01/09 18:23:06;;;;;;;;;;;5.30;99.90;;;;;;5135990;23;20757;-80
2023/01/09 18:34:28;;;;;;;;;;;5.30;99.90;;;;;;4990542;23;19930;-78
2023/01/09 18:36:56;;;;;;;;;;;5.30;99.90;;;;;;5256950;23;20936;-80
2023/01/09 18:44:42;;;;;;;;;;;5.30;99.90;;;;;;4650778;23;21003;-80
